METAR AND TAF INFORMATION
METAR FOR KRNO
KRNO 211655Z 00000KT 10SM CLR 26/03 A2999 RMK AO2 SLP093 T02560033
KRNO 211555Z 00000KT 10SM CLR 23/03 A3000 RMK AO2 SLP097 T02280028
KRNO 211455Z 18004KT 10SM CLR 20/03 A3000 RMK AO2 SLP098 T02000028 51008
KRNO 211720Z 2118/2218 VRB03KT P6SM SKC
FM211900 04005KT P6SM SKC
FM220000 33010KT P6SM FEW120
FM221000 VRB05KT P6SM SKC

 AIRPORT MAP

 RUNWAY INFORMATION
Runway 07 Runway length 6102 ft Runway width 150 ft
Runway elevation 4409 ft Runway displaced threshold 0 ft Runway heading 90
Runway 25 Runway length 6102 ft Runway width 150 ft
Runway elevation 4400 ft Runway displaced threshold 0 ft Runway heading 270
Runway 16L Runway length 9000 ft Runway width 150 ft
Runway elevation 4415 ft Runway displaced threshold 0 ft Runway heading 180
Runway 34R Runway length 9000 ft Runway width 150 ft
Runway elevation 4408 ft Runway displaced threshold 0 ft Runway heading 360
Runway 16R Runway length 11002 ft Runway width 150 ft
Runway elevation 4415 ft Runway displaced threshold 999 ft Runway heading 180
Runway 34L Runway length 11002 ft Runway width 150 ft
Runway elevation 4410 ft Runway displaced threshold 990 ft Runway heading 360

 AIRPORT FREQUENCIES
Type A/D Name APP/DEP Frequency 119.2 MHZ
Type ATIS Name ATIS Frequency 135.8 MHZ
Type CLD Name CLNC DEL Frequency 124.9 MHZ
Type GND Name GND Frequency 121.9 MHZ
Type OPS Name ANG OPS Frequency 38.885 MHZ
Type POST Name ANG COMD P Frequency 434.1 MHZ
Type RDO Name RDO Frequency 122.2 MHZ
Type TWR Name TWR Frequency 118.7 MHZ
Type UNIC Name UNICOM Frequency 122.95 MHZ

 AIRPORT NEAR NAVIGATION AIDS
Type VORTAC Name Mustang Frequency 117900 KHZ

-